createdAt,value
2022-08-04T00:03:19.631Z,65.80
2022-08-04T00:06:41.111Z,66.20
2022-08-04T00:09:16.624Z,65.87
2022-08-04T00:15:14.898Z,65.73
2022-08-04T00:21:46.510Z,66.29
2022-08-04T00:24:24.153Z,66.06
2022-08-04T00:27:26.679Z,66.79
2022-08-04T00:29:57.773Z,66.26
2022-08-04T00:36:32.707Z,66.40
2022-08-04T00:39:21.626Z,67.07
2022-08-04T00:42:23.052Z,67.91
2022-08-04T00:49:03.519Z,68.08
2022-08-04T00:51:41.381Z,67.56
2022-08-04T00:58:06.255Z,67.07
2022-08-04T01:00:46.001Z,67.62
2022-08-04T01:03:35.529Z,68.21
2022-08-04T01:23:57.498Z,67.93
2022-08-04T01:27:01.634Z,68.29
2022-08-04T01:29:56.105Z,68.15
2022-08-04T01:32:38.472Z,68.31
2022-08-04T01:36:00.856Z,68.54
2022-08-04T01:38:35.156Z,68.41
2022-08-04T01:48:52.749Z,68.58
2022-08-04T01:58:48.611Z,68.53
2022-08-04T02:01:39.324Z,67.87
2022-08-04T02:04:22.029Z,67.90
2022-08-04T02:07:34.068Z,68.45
2022-08-04T02:13:35.708Z,68.65
2022-08-04T02:16:44.699Z,68.67
2022-08-04T02:22:39.999Z,68.55
2022-08-04T02:29:31.785Z,68.32
2022-08-04T02:32:10.597Z,68.53
2022-08-04T02:35:12.184Z,69.01
2022-08-04T02:38:05.078Z,69.06
2022-08-04T02:40:33.864Z,68.78
2022-08-04T02:43:50.253Z,69.05
2022-08-04T02:49:53.094Z,68.58
2022-08-04T02:59:27.235Z,69.17
2022-08-04T03:01:57.581Z,69.55
2022-08-04T03:04:51.378Z,69.89
2022-08-04T03:07:54.806Z,70.10
2022-08-04T03:14:36.125Z,70.45
2022-08-04T03:17:30.905Z,70.74
2022-08-04T03:33:57.396Z,71.08
2022-08-04T03:37:02.551Z,70.96
2022-08-04T03:39:58.961Z,70.75
2022-08-04T03:43:58.880Z,70.75
2022-08-04T03:53:34.412Z,70.94
2022-08-04T03:56:21.015Z,71.06
2022-08-04T04:03:02.386Z,71.43
2022-08-04T04:09:20.494Z,72.50
2022-08-04T04:19:15.525Z,72.38
2022-08-04T04:22:01.810Z,71.79
2022-08-04T04:29:02.863Z,72.74
2022-08-04T04:32:14.782Z,72.61
2022-08-04T04:35:08.283Z,72.41
2022-08-04T04:42:07.471Z,72.44
2022-08-04T04:45:23.452Z,72.19
2022-08-04T04:48:10.671Z,72.76
2022-08-04T04:51:06.035Z,72.61
2022-08-04T04:53:38.875Z,72.64
2022-08-04T05:00:30.247Z,73.36
2022-08-04T05:03:35.367Z,73.68
2022-08-04T05:10:11.044Z,73.38
2022-08-04T05:14:31.884Z,73.55
2022-08-04T05:19:50.643Z,74.25
2022-08-04T05:22:31.579Z,74.05
2022-08-04T05:25:07.449Z,74.37
2022-08-04T05:31:19.090Z,73.74
2022-08-04T05:37:20.915Z,73.43
2022-08-04T05:39:57.483Z,73.78
2022-08-04T05:42:37.294Z,74.72
2022-08-04T05:45:07.229Z,74.27
2022-08-04T05:51:21.594Z,74.15
2022-08-04T05:54:11.071Z,74.28
2022-08-04T06:08:13.467Z,73.95
2022-08-04T06:11:07.824Z,73.85
2022-08-04T06:14:01.787Z,74.12
2022-08-04T06:18:33.398Z,74.16
2022-08-04T06:20:18.055Z,74.12
2022-08-04T06:26:26.510Z,73.82
2022-08-04T06:29:23.623Z,73.41
2022-08-04T06:32:26.930Z,74.43
2022-08-04T06:35:02.239Z,73.83
2022-08-04T06:37:42.895Z,74.13
2022-08-04T06:40:32.059Z,74.35
2022-08-04T06:43:03.191Z,74.23
2022-08-04T06:45:32.103Z,74.50
2022-08-04T06:48:01.174Z,74.13
2022-08-04T06:51:27.652Z,73.94
2022-08-04T06:53:59.143Z,74.26
2022-08-04T06:56:29.352Z,73.83
2022-08-04T06:58:59.612Z,74.25
2022-08-04T07:01:29.404Z,74.17
2022-08-04T07:03:57.252Z,73.92
2022-08-04T07:06:25.735Z,73.87
2022-08-04T07:12:53.849Z,73.44
2022-08-04T07:18:45.639Z,73.25
2022-08-04T07:21:22.104Z,72.92
2022-08-04T07:23:53.100Z,72.63
2022-08-04T07:26:26.616Z,72.92
2022-08-04T07:28:54.195Z,72.64
2022-08-04T07:31:33.542Z,73.06
2022-08-04T07:34:25.105Z,72.97
2022-08-04T07:36:58.090Z,72.43
2022-08-04T07:39:32.278Z,72.49
2022-08-04T07:42:19.611Z,72.46
2022-08-04T07:44:47.427Z,72.79
2022-08-04T07:47:15.074Z,73.17
2022-08-04T07:49:56.820Z,73.40
2022-08-04T07:52:26.779Z,73.63
2022-08-04T07:55:20.811Z,73.01
2022-08-04T07:58:01.015Z,72.95
2022-08-04T08:00:35.807Z,73.66
2022-08-04T08:03:07.812Z,74.41
2022-08-04T08:06:30.959Z,75.04
2022-08-04T08:08:43.209Z,75.17
2022-08-04T08:11:11.023Z,74.76
2022-08-04T08:13:39.556Z,73.82
2022-08-04T08:16:11.583Z,72.60
2022-08-04T08:18:46.771Z,71.04
2022-08-04T08:21:59.569Z,68.57
2022-08-04T08:24:36.730Z,65.13
2022-08-04T08:27:05.531Z,61.65
2022-08-04T08:29:37.930Z,58.65
2022-08-04T08:32:09.592Z,57.19
2022-08-04T08:34:38.715Z,53.45
2022-08-04T08:37:42.215Z,55.89
2022-08-04T08:40:46.672Z,49.08
2022-08-04T08:44:06.033Z,50.39
2022-08-04T08:47:02.575Z,50.32
2022-08-04T08:50:14.764Z,49.03
2022-08-04T08:53:10.001Z,47.83
2022-08-04T08:56:08.852Z,47.32
2022-08-04T08:58:55.301Z,47.90
2022-08-04T09:01:49.526Z,48.34
2022-08-04T09:04:47.292Z,48.24
2022-08-04T09:07:33.527Z,49.43
2022-08-04T09:10:04.083Z,49.63
2022-08-04T09:16:27.688Z,46.51
2022-08-04T09:22:52.187Z,46.13
2022-08-04T09:25:48.817Z,44.86
2022-08-04T09:28:52.445Z,45.56
2022-08-04T09:31:19.991Z,45.54
2022-08-04T09:34:19.645Z,44.38
2022-08-04T09:36:56.882Z,43.93
2022-08-04T09:39:37.791Z,43.99
2022-08-04T09:42:26.513Z,42.71
2022-08-04T09:45:07.863Z,42.98
2022-08-04T09:47:55.136Z,41.74
2022-08-04T09:50:50.192Z,41.44
2022-08-04T09:53:30.010Z,42.13
2022-08-04T10:00:02.949Z,42.89
2022-08-04T10:02:58.643Z,41.60
2022-08-04T10:05:41.012Z,41.42
2022-08-04T10:08:46.155Z,38.83
2022-08-04T10:11:58.463Z,39.55
2022-08-04T10:14:52.932Z,41.38
2022-08-04T10:18:07.250Z,42.51
2022-08-04T10:20:58.119Z,42.72
2022-08-04T10:23:56.396Z,42.11
2022-08-04T10:26:35.139Z,41.46
2022-08-04T10:29:07.157Z,41.23
2022-08-04T10:31:39.679Z,41.00
2022-08-04T10:34:20.371Z,40.40
2022-08-04T10:37:06.223Z,40.44
2022-08-04T10:40:21.046Z,38.94
2022-08-04T10:43:22.085Z,39.37
2022-08-04T10:46:39.796Z,39.00
2022-08-04T10:49:28.355Z,40.50
2022-08-04T10:52:14.617Z,40.40
2022-08-04T10:56:06.298Z,40.66
2022-08-04T10:58:52.569Z,40.43
2022-08-04T11:02:02.940Z,40.50
2022-08-04T11:04:48.849Z,39.77
2022-08-04T11:07:17.955Z,41.40
2022-08-04T11:10:41.266Z,41.20
2022-08-04T11:16:56.253Z,40.49
2022-08-04T11:19:49.924Z,40.10
2022-08-04T11:22:23.320Z,41.43
2022-08-04T11:24:55.181Z,41.38
2022-08-04T11:27:55.623Z,41.65
2022-08-04T11:30:33.113Z,41.82
2022-08-04T11:33:26.964Z,40.97
2022-08-04T11:36:32.662Z,41.12
2022-08-04T11:39:11.557Z,41.45
2022-08-04T11:42:14.899Z,41.57
2022-08-04T11:45:11.086Z,42.59
2022-08-04T11:47:39.844Z,42.48
2022-08-04T11:50:20.520Z,41.92
2022-08-04T11:52:50.351Z,42.58
2022-08-04T11:55:21.513Z,42.42
2022-08-04T11:57:54.231Z,42.17
2022-08-04T12:00:25.281Z,41.85
2022-08-04T12:03:14.068Z,40.99
2022-08-04T12:06:16.214Z,39.86
2022-08-04T12:09:13.180Z,41.49
2022-08-04T12:12:18.544Z,41.33
2022-08-04T12:14:55.003Z,41.98
2022-08-04T12:17:37.029Z,42.51
2022-08-04T12:20:44.056Z,43.05
2022-08-04T12:23:24.477Z,42.37
2022-08-04T12:26:03.560Z,42.82
2022-08-04T12:29:08.134Z,42.29
2022-08-04T12:31:48.196Z,41.56
2022-08-04T12:34:32.345Z,41.69
2022-08-04T12:40:57.212Z,40.65
2022-08-04T12:43:43.032Z,40.73
2022-08-04T12:46:17.968Z,41.57
2022-08-04T12:48:48.423Z,41.31
2022-08-04T12:52:06.708Z,41.12
2022-08-04T12:54:07.244Z,41.38
2022-08-04T12:56:58.483Z,40.91
2022-08-04T12:59:28.887Z,41.09
2022-08-04T13:02:07.883Z,41.01
2022-08-04T13:04:51.205Z,40.12
2022-08-04T13:07:27.489Z,40.10
2022-08-04T13:09:58.163Z,40.68
2022-08-04T13:12:32.560Z,40.75
2022-08-04T13:15:17.642Z,41.36
2022-08-04T13:18:00.061Z,41.11
2022-08-04T13:20:31.687Z,40.95
2022-08-04T13:23:21.568Z,40.56
2022-08-04T13:26:43.066Z,40.14
2022-08-04T13:28:46.627Z,39.92
2022-08-04T13:31:20.265Z,39.93
2022-08-04T13:33:50.443Z,39.10
2022-08-04T13:36:25.836Z,39.13
2022-08-04T13:39:00.216Z,39.55
2022-08-04T13:41:31.263Z,38.77
2022-08-04T13:44:18.059Z,38.67
2022-08-04T13:46:56.083Z,38.09
2022-08-04T13:50:22.914Z,37.17
2022-08-04T13:53:09.356Z,37.65
2022-08-04T13:55:37.381Z,38.34
2022-08-04T13:58:21.583Z,38.00
2022-08-04T14:00:58.968Z,37.67
2022-08-04T14:03:53.553Z,37.24
2022-08-04T14:06:45.102Z,36.27
2022-08-04T14:09:21.266Z,35.66
2022-08-04T14:12:10.673Z,37.11
2022-08-04T14:14:48.270Z,36.78
2022-08-04T14:17:24.135Z,36.84
2022-08-04T14:20:00.201Z,37.85
2022-08-04T14:22:28.869Z,37.76
2022-08-04T14:25:04.332Z,37.72
2022-08-04T14:27:41.881Z,38.18
2022-08-04T14:30:24.786Z,40.13
2022-08-04T14:34:02.041Z,40.04
2022-08-04T14:36:04.358Z,40.59
2022-08-04T14:38:48.341Z,39.91
2022-08-04T14:41:17.180Z,40.08
2022-08-04T14:43:56.237Z,39.94
2022-08-04T14:46:36.700Z,40.62
2022-08-04T14:49:26.799Z,40.21
2022-08-04T14:52:00.211Z,40.71
2022-08-04T14:54:34.971Z,40.74
2022-08-04T14:57:07.892Z,40.84
2022-08-04T15:00:00.534Z,40.46
2022-08-04T15:02:30.580Z,39.75
2022-08-04T15:05:00.035Z,39.92
2022-08-04T15:07:47.456Z,39.61
2022-08-04T15:10:15.139Z,39.67
2022-08-04T15:12:43.364Z,39.35
2022-08-04T15:15:35.321Z,39.70
2022-08-04T15:17:58.512Z,40.33
2022-08-04T15:20:26.093Z,40.43
2022-08-04T15:22:53.861Z,40.41
2022-08-04T15:25:21.573Z,40.10
2022-08-04T15:28:02.837Z,40.20
2022-08-04T15:30:32.443Z,40.67
2022-08-04T15:33:03.247Z,40.44
2022-08-04T15:35:39.168Z,40.18
2022-08-04T15:38:15.254Z,40.39
2022-08-04T15:41:05.714Z,39.70
2022-08-04T15:47:14.475Z,38.67
2022-08-04T15:49:44.160Z,38.72
2022-08-04T15:56:37.123Z,36.97
2022-08-04T16:00:02.997Z,36.91
2022-08-04T16:02:59.849Z,36.78
2022-08-04T16:12:55.866Z,34.87
2022-08-04T16:22:49.035Z,36.07
2022-08-04T16:29:24.014Z,36.36
2022-08-04T16:32:17.484Z,37.81
2022-08-04T16:35:19.291Z,38.41
2022-08-04T16:38:16.630Z,38.45
2022-08-04T16:40:44.582Z,38.39
2022-08-04T16:43:14.944Z,39.24
2022-08-04T16:45:46.736Z,39.28
2022-08-04T16:52:13.332Z,39.07
2022-08-04T16:58:30.822Z,39.64
2022-08-04T17:01:33.246Z,39.60
2022-08-04T17:04:07.385Z,39.84
2022-08-04T17:07:01.124Z,40.55
2022-08-04T17:10:06.179Z,39.51
2022-08-04T17:28:20.026Z,38.66
2022-08-04T17:33:54.322Z,38.11
2022-08-04T17:40:26.091Z,37.33
2022-08-04T17:44:03.053Z,37.18
2022-08-04T17:47:12.710Z,38.51
2022-08-04T17:57:23.525Z,38.76
2022-08-04T18:00:19.450Z,38.71
2022-08-04T18:02:54.844Z,38.32
2022-08-04T18:10:01.953Z,37.20
2022-08-04T18:12:48.811Z,37.74
2022-08-04T18:15:44.377Z,37.89
2022-08-04T18:18:38.326Z,38.33
2022-08-04T18:21:26.394Z,38.87
2022-08-04T18:27:32.789Z,38.81
2022-08-04T18:33:59.554Z,39.37
2022-08-04T18:36:34.827Z,39.61
2022-08-04T18:50:58.963Z,40.77
2022-08-04T18:52:26.329Z,40.91
2022-08-04T18:58:27.117Z,41.29
2022-08-04T19:05:17.334Z,41.73
2022-08-04T19:08:02.124Z,41.33
2022-08-04T19:14:21.283Z,41.31
2022-08-04T19:17:22.236Z,41.59
2022-08-04T19:27:54.710Z,42.39
2022-08-04T19:30:43.440Z,42.54
2022-08-04T19:33:59.210Z,42.57
2022-08-04T19:40:33.559Z,43.51
2022-08-04T19:43:22.939Z,43.73
2022-08-04T19:46:09.676Z,43.96
2022-08-04T19:48:40.883Z,44.10
2022-08-04T19:51:08.488Z,44.63
2022-08-04T19:53:43.008Z,44.74
2022-08-04T19:56:14.478Z,45.29
2022-08-04T20:02:48.330Z,45.13
2022-08-04T20:05:53.310Z,45.31
2022-08-04T20:08:48.246Z,45.57
2022-08-04T20:11:30.539Z,46.27
2022-08-04T20:21:11.275Z,46.46
2022-08-04T20:27:25.437Z,46.98
2022-08-04T20:37:26.216Z,47.54
2022-08-04T20:40:13.556Z,47.04
2022-08-04T20:43:11.448Z,47.38
2022-08-04T20:45:57.247Z,47.25
2022-08-04T20:48:36.736Z,48.00
2022-08-04T20:51:20.146Z,48.08
2022-08-04T20:53:59.328Z,48.04
2022-08-04T20:56:30.572Z,48.39
2022-08-04T20:59:00.340Z,48.47
2022-08-04T21:01:29.880Z,48.41
2022-08-04T21:04:27.888Z,48.41
2022-08-04T21:06:58.101Z,48.90
2022-08-04T21:12:34.966Z,49.37
2022-08-04T21:15:13.641Z,49.57
2022-08-04T21:17:59.074Z,49.99
2022-08-04T21:20:35.286Z,49.82
2022-08-04T21:23:05.058Z,49.83
2022-08-04T21:28:22.241Z,50.00
2022-08-04T21:30:54.923Z,50.09
2022-08-04T21:33:50.533Z,50.16
2022-08-04T21:36:19.560Z,50.60
2022-08-04T21:38:51.571Z,50.31
2022-08-04T21:42:09.921Z,50.78
2022-08-04T21:44:26.990Z,50.54
2022-08-04T21:46:55.203Z,50.67
2022-08-04T21:49:23.165Z,51.32
2022-08-04T21:51:58.133Z,51.93
2022-08-04T21:54:28.364Z,52.26
2022-08-04T21:56:55.976Z,51.74
2022-08-04T22:05:56.743Z,52.15
2022-08-04T22:09:14.542Z,52.79
2022-08-04T22:11:48.785Z,52.72
2022-08-04T22:14:34.445Z,52.64
2022-08-04T22:17:04.056Z,52.60
2022-08-04T22:19:50.248Z,52.86
2022-08-04T22:22:24.395Z,52.72
2022-08-04T22:25:17.248Z,52.87
2022-08-04T22:28:00.868Z,53.08
2022-08-04T22:30:36.998Z,53.07
2022-08-04T22:33:54.647Z,53.77
2022-08-04T22:36:22.060Z,53.05
2022-08-04T22:39:04.231Z,53.39
2022-08-04T22:42:04.225Z,53.44
2022-08-04T22:44:22.535Z,53.25
2022-08-04T22:46:51.345Z,53.50
2022-08-04T22:49:18.912Z,53.37
2022-08-04T22:51:52.591Z,53.67
2022-08-04T22:54:20.043Z,53.87
2022-08-04T22:56:47.505Z,53.88
2022-08-04T22:59:14.957Z,54.31
2022-08-04T23:02:00.528Z,54.34
2022-08-04T23:11:54.005Z,54.68
2022-08-04T23:14:30.355Z,54.60
2022-08-04T23:16:59.318Z,54.69
2022-08-04T23:19:30.056Z,54.88
2022-08-04T23:22:01.741Z,55.16
2022-08-04T23:24:30.097Z,55.35
2022-08-04T23:26:58.902Z,55.51
2022-08-04T23:29:27.361Z,55.57
2022-08-04T23:31:59.879Z,55.42
2022-08-04T23:34:29.482Z,55.62
2022-08-04T23:36:58.948Z,55.65
2022-08-04T23:40:04.265Z,55.79
2022-08-04T23:42:15.007Z,55.86
2022-08-04T23:44:49.867Z,56.16
2022-08-04T23:48:15.166Z,56.00
2022-08-04T23:50:05.769Z,56.78
2022-08-04T23:52:34.712Z,57.24
2022-08-04T23:55:02.194Z,56.98
2022-08-04T23:57:31.265Z,57.38
